Arthur, Nebraska
Current Conditions -  °F | °C
As of 3:15 AM on Monday 26 Jan 2015 (Local Time) from KOGA Reporting Station
Clear Clear  
Wind Chill: 37°   Ceiling: Unl
Heat Index: 44°   Visibility: 10mi
Dew Point: 33°   Wind: 15mph
Humidity: 63%   Direction: 300°WNW
Pressure: 30.07"   Gusts: 20mph
Location:  41.57°N, 101.69°W
Report Text: KOGA 261015Z AUTO 30013G17KT 10SM CLR 07/00 A3007 RMK AO2 T00680003
Loading
Personal Weather Stations






























Interactive Weather Map New forecast layout! Learn more

10-Day Weather Forecast

Advertisements
Track Severe Weather on mobile